sensor_id;sensor_type;location;lat;lon;timestamp;P1;durP1;ratioP1;P2;durP2;ratioP2
62941;SDS011;49042;47.318;19.874;2023-04-01T00:00:05;4.55;;;2.15;;
62941;SDS011;49042;47.318;19.874;2023-04-01T00:03:07;6.43;;;2.33;;
62941;SDS011;49042;47.318;19.874;2023-04-01T00:06:11;2.65;;;1.70;;
62941;SDS011;49042;47.318;19.874;2023-04-01T00:09:15;4.30;;;2.17;;
62941;SDS011;49042;47.318;19.874;2023-04-01T00:12:17;2.87;;;1.90;;
62941;SDS011;49042;47.318;19.874;2023-04-01T00:15:18;3.35;;;1.80;;
62941;SDS011;49042;47.318;19.874;2023-04-01T00:18:20;3.15;;;2.03;;
62941;SDS011;49042;47.318;19.874;2023-04-01T00:21:22;2.87;;;1.70;;
62941;SDS011;49042;47.318;19.874;2023-04-01T00:24:24;2.85;;;1.90;;
62941;SDS011;49042;47.318;19.874;2023-04-01T00:27:26;3.17;;;1.87;;
62941;SDS011;49042;47.318;19.874;2023-04-01T00:30:28;3.30;;;1.85;;
62941;SDS011;49042;47.318;19.874;2023-04-01T00:33:29;3.20;;;1.50;;
62941;SDS011;49042;47.318;19.874;2023-04-01T00:36:31;6.00;;;2.03;;
62941;SDS011;49042;47.318;19.874;2023-04-01T00:39:33;3.92;;;1.87;;
62941;SDS011;49042;47.318;19.874;2023-04-01T00:42:36;2.95;;;1.60;;
62941;SDS011;49042;47.318;19.874;2023-04-01T00:45:39;3.00;;;1.92;;
62941;SDS011;49042;47.318;19.874;2023-04-01T00:48:53;4.75;;;1.90;;
62941;SDS011;49042;47.318;19.874;2023-04-01T00:51:57;2.17;;;1.83;;
62941;SDS011;49042;47.318;19.874;2023-04-01T00:55:01;5.45;;;2.03;;
62941;SDS011;49042;47.318;19.874;2023-04-01T00:58:07;2.67;;;1.80;;
62941;SDS011;49042;47.318;19.874;2023-04-01T01:01:12;3.63;;;2.40;;
62941;SDS011;49042;47.318;19.874;2023-04-01T01:04:24;3.90;;;2.30;;
62941;SDS011;49042;47.318;19.874;2023-04-01T01:10:38;5.20;;;2.87;;
62941;SDS011;49042;47.318;19.874;2023-04-01T01:13:47;5.53;;;2.55;;
62941;SDS011;49042;47.318;19.874;2023-04-01T01:16:58;6.93;;;3.20;;
62941;SDS011;49042;47.318;19.874;2023-04-01T01:20:31;5.70;;;3.28;;
62941;SDS011;49042;47.318;19.874;2023-04-01T01:24:03;9.32;;;3.05;;
62941;SDS011;49042;47.318;19.874;2023-04-01T01:27:12;8.02;;;4.00;;
62941;SDS011;49042;47.318;19.874;2023-04-01T01:37:20;8.18;;;4.43;;
62941;SDS011;49042;47.318;19.874;2023-04-01T01:40:25;7.32;;;4.57;;
62941;SDS011;49042;47.318;19.874;2023-04-01T01:43:30;9.35;;;4.87;;
62941;SDS011;49042;47.318;19.874;2023-04-01T01:46:36;9.88;;;5.53;;
62941;SDS011;49042;47.318;19.874;2023-04-01T01:49:41;10.57;;;5.60;;
62941;SDS011;49042;47.318;19.874;2023-04-01T01:52:44;9.73;;;5.22;;
62941;SDS011;49042;47.318;19.874;2023-04-01T01:55:47;12.82;;;5.75;;
62941;SDS011;49042;47.318;19.874;2023-04-01T01:58:49;14.70;;;7.28;;
62941;SDS011;49042;47.318;19.874;2023-04-01T02:01:54;13.82;;;7.18;;
62941;SDS011;49042;47.318;19.874;2023-04-01T02:04:58;16.45;;;8.07;;
62941;SDS011;49042;47.318;19.874;2023-04-01T02:08:01;15.65;;;6.87;;
62941;SDS011;49042;47.318;19.874;2023-04-01T02:11:28;11.02;;;6.95;;
62941;SDS011;49042;47.318;19.874;2023-04-01T02:14:37;15.70;;;7.15;;
62941;SDS011;49042;47.318;19.874;2023-04-01T02:17:44;14.02;;;6.72;;
62941;SDS011;49042;47.318;19.874;2023-04-01T02:20:47;13.07;;;6.75;;
62941;SDS011;49042;47.318;19.874;2023-04-01T02:23:50;11.63;;;6.05;;
62941;SDS011;49042;47.318;19.874;2023-04-01T02:26:54;13.57;;;6.07;;
62941;SDS011;49042;47.318;19.874;2023-04-01T02:29:56;11.12;;;6.40;;
62941;SDS011;49042;47.318;19.874;2023-04-01T02:32:59;10.40;;;4.90;;
62941;SDS011;49042;47.318;19.874;2023-04-01T02:36:01;9.10;;;5.00;;
62941;SDS011;49042;47.318;19.874;2023-04-01T02:39:03;9.60;;;5.00;;
62941;SDS011;49042;47.318;19.874;2023-04-01T02:42:06;10.55;;;5.50;;
62941;SDS011;49042;47.318;19.874;2023-04-01T02:45:08;8.45;;;4.65;;
62941;SDS011;49042;47.318;19.874;2023-04-01T02:48:10;9.65;;;5.32;;
62941;SDS011;49042;47.318;19.874;2023-04-01T02:51:14;10.63;;;5.72;;
62941;SDS011;49042;47.318;19.874;2023-04-01T02:54:18;10.23;;;5.22;;
62941;SDS011;49042;47.318;19.874;2023-04-01T02:57:20;10.40;;;5.55;;
62941;SDS011;49042;47.318;19.874;2023-04-01T03:00:22;10.02;;;5.72;;
62941;SDS011;49042;47.318;19.874;2023-04-01T03:03:24;11.45;;;6.25;;
62941;SDS011;49042;47.318;19.874;2023-04-01T03:06:26;13.98;;;6.45;;
62941;SDS011;49042;47.318;19.874;2023-04-01T03:09:28;13.32;;;6.20;;
62941;SDS011;49042;47.318;19.874;2023-04-01T03:12:30;11.80;;;5.97;;
62941;SDS011;49042;47.318;19.874;2023-04-01T03:15:31;9.25;;;5.57;;
62941;SDS011;49042;47.318;19.874;2023-04-01T03:18:33;18.33;;;6.05;;
62941;SDS011;49042;47.318;19.874;2023-04-01T03:21:35;11.48;;;5.57;;
62941;SDS011;49042;47.318;19.874;2023-04-01T03:24:37;13.18;;;6.10;;
62941;SDS011;49042;47.318;19.874;2023-04-01T03:27:39;13.10;;;5.60;;
62941;SDS011;49042;47.318;19.874;2023-04-01T03:30:40;12.90;;;6.28;;
62941;SDS011;49042;47.318;19.874;2023-04-01T03:33:42;10.73;;;6.12;;
62941;SDS011;49042;47.318;19.874;2023-04-01T03:36:44;10.90;;;5.30;;
62941;SDS011;49042;47.318;19.874;2023-04-01T03:39:46;10.02;;;5.15;;
62941;SDS011;49042;47.318;19.874;2023-04-01T03:42:47;11.82;;;5.60;;
62941;SDS011;49042;47.318;19.874;2023-04-01T03:45:50;6.18;;;4.32;;
62941;SDS011;49042;47.318;19.874;2023-04-01T03:48:52;8.27;;;4.50;;
62941;SDS011;49042;47.318;19.874;2023-04-01T03:51:54;8.50;;;4.78;;
62941;SDS011;49042;47.318;19.874;2023-04-01T03:54:56;7.95;;;4.65;;
62941;SDS011;49042;47.318;19.874;2023-04-01T03:57:57;9.65;;;4.15;;
62941;SDS011;49042;47.318;19.874;2023-04-01T04:00:59;10.20;;;4.90;;
62941;SDS011;49042;47.318;19.874;2023-04-01T04:04:01;8.23;;;4.70;;
62941;SDS011;49042;47.318;19.874;2023-04-01T04:07:02;8.15;;;4.55;;
62941;SDS011;49042;47.318;19.874;2023-04-01T04:10:05;8.13;;;3.83;;
62941;SDS011;49042;47.318;19.874;2023-04-01T04:13:07;8.65;;;3.53;;
62941;SDS011;49042;47.318;19.874;2023-04-01T04:16:09;5.85;;;3.53;;
62941;SDS011;49042;47.318;19.874;2023-04-01T04:19:11;6.70;;;3.78;;
62941;SDS011;49042;47.318;19.874;2023-04-01T04:22:13;8.10;;;3.62;;
62941;SDS011;49042;47.318;19.874;2023-04-01T04:25:15;6.03;;;3.85;;
62941;SDS011;49042;47.318;19.874;2023-04-01T04:28:17;10.20;;;3.60;;
62941;SDS011;49042;47.318;19.874;2023-04-01T04:31:19;5.78;;;3.87;;
62941;SDS011;49042;47.318;19.874;2023-04-01T04:34:22;4.70;;;3.30;;
62941;SDS011;49042;47.318;19.874;2023-04-01T04:37:24;6.25;;;3.90;;
62941;SDS011;49042;47.318;19.874;2023-04-01T04:40:27;4.70;;;3.62;;
62941;SDS011;49042;47.318;19.874;2023-04-01T04:43:28;5.28;;;3.55;;
62941;SDS011;49042;47.318;19.874;2023-04-01T04:46:30;5.45;;;3.15;;
62941;SDS011;49042;47.318;19.874;2023-04-01T04:49:32;8.18;;;3.25;;
62941;SDS011;49042;47.318;19.874;2023-04-01T04:52:34;7.82;;;6.97;;
62941;SDS011;49042;47.318;19.874;2023-04-01T04:55:35;6.30;;;5.32;;
62941;SDS011;49042;47.318;19.874;2023-04-01T04:58:37;22.52;;;20.23;;
62941;SDS011;49042;47.318;19.874;2023-04-01T05:01:40;10.02;;;9.02;;
62941;SDS011;49042;47.318;19.874;2023-04-01T05:04:42;8.73;;;5.57;;
62941;SDS011;49042;47.318;19.874;2023-04-01T05:07:43;9.95;;;8.50;;
62941;SDS011;49042;47.318;19.874;2023-04-01T05:10:45;7.03;;;3.80;;
62941;SDS011;49042;47.318;19.874;2023-04-01T05:13:47;3.80;;;2.95;;
62941;SDS011;49042;47.318;19.874;2023-04-01T05:16:49;3.03;;;2.12;;
62941;SDS011;49042;47.318;19.874;2023-04-01T05:19:52;3.30;;;2.30;;
62941;SDS011;49042;47.318;19.874;2023-04-01T05:22:56;3.62;;;2.03;;
62941;SDS011;49042;47.318;19.874;2023-04-01T05:26:02;5.68;;;2.67;;
62941;SDS011;49042;47.318;19.874;2023-04-01T05:29:04;5.82;;;2.72;;
62941;SDS011;49042;47.318;19.874;2023-04-01T05:32:06;4.40;;;2.22;;
62941;SDS011;49042;47.318;19.874;2023-04-01T05:35:08;4.35;;;2.22;;
62941;SDS011;49042;47.318;19.874;2023-04-01T05:38:11;4.10;;;2.30;;
62941;SDS011;49042;47.318;19.874;2023-04-01T05:41:13;3.80;;;2.33;;
62941;SDS011;49042;47.318;19.874;2023-04-01T05:44:15;5.60;;;4.03;;
62941;SDS011;49042;47.318;19.874;2023-04-01T05:47:17;4.65;;;3.50;;
62941;SDS011;49042;47.318;19.874;2023-04-01T05:50:19;7.70;;;3.30;;
62941;SDS011;49042;47.318;19.874;2023-04-01T05:53:21;6.97;;;4.12;;
62941;SDS011;49042;47.318;19.874;2023-04-01T05:56:23;4.12;;;3.00;;
62941;SDS011;49042;47.318;19.874;2023-04-01T05:59:25;5.03;;;2.70;;
62941;SDS011;49042;47.318;19.874;2023-04-01T06:02:26;3.62;;;2.78;;
62941;SDS011;49042;47.318;19.874;2023-04-01T06:05:29;3.80;;;2.10;;
62941;SDS011;49042;47.318;19.874;2023-04-01T06:08:32;2.30;;;1.83;;
62941;SDS011;49042;47.318;19.874;2023-04-01T06:11:39;3.85;;;1.70;;
62941;SDS011;49042;47.318;19.874;2023-04-01T06:25:24;2.30;;;1.80;;
62941;SDS011;49042;47.318;19.874;2023-04-01T06:42:17;4.00;;;1.70;;
62941;SDS011;49042;47.318;19.874;2023-04-01T06:45:40;2.83;;;1.85;;
62941;SDS011;49042;47.318;19.874;2023-04-01T06:55:29;7.47;;;3.35;;
62941;SDS011;49042;47.318;19.874;2023-04-01T06:59:22;3.70;;;2.40;;
62941;SDS011;49042;47.318;19.874;2023-04-01T07:05:30;5.25;;;2.90;;
62941;SDS011;49042;47.318;19.874;2023-04-01T07:08:35;5.57;;;2.50;;
62941;SDS011;49042;47.318;19.874;2023-04-01T07:14:43;13.30;;;4.43;;
62941;SDS011;49042;47.318;19.874;2023-04-01T07:17:47;10.98;;;6.43;;
62941;SDS011;49042;47.318;19.874;2023-04-01T07:23:57;8.75;;;5.20;;
62941;SDS011;49042;47.318;19.874;2023-04-01T07:27:08;4.35;;;2.50;;
62941;SDS011;49042;47.318;19.874;2023-04-01T07:30:16;7.15;;;3.20;;
62941;SDS011;49042;47.318;19.874;2023-04-01T07:33:22;6.18;;;2.58;;
62941;SDS011;49042;47.318;19.874;2023-04-01T07:57:16;6.72;;;2.30;;
62941;SDS011;49042;47.318;19.874;2023-04-01T08:00:05;19.10;;;10.52;;
62941;SDS011;49042;47.318;19.874;2023-04-01T08:03:14;7.82;;;4.57;;
62941;SDS011;49042;47.318;19.874;2023-04-01T08:19:36;5.03;;;2.83;;
62941;SDS011;49042;47.318;19.874;2023-04-01T08:26:10;2.42;;;1.62;;
62941;SDS011;49042;47.318;19.874;2023-04-01T08:29:23;3.03;;;1.75;;
62941;SDS011;49042;47.318;19.874;2023-04-01T08:32:30;4.82;;;1.83;;
62941;SDS011;49042;47.318;19.874;2023-04-01T08:36:31;6.75;;;2.12;;
62941;SDS011;49042;47.318;19.874;2023-04-01T08:39:34;4.25;;;1.40;;
62941;SDS011;49042;47.318;19.874;2023-04-01T08:43:04;2.72;;;1.35;;
62941;SDS011;49042;47.318;19.874;2023-04-01T09:09:55;14.55;;;6.60;;
62941;SDS011;49042;47.318;19.874;2023-04-01T09:17:05;1.58;;;1.10;;
62941;SDS011;49042;47.318;19.874;2023-04-01T09:37:32;3.35;;;0.90;;
62941;SDS011;49042;47.318;19.874;2023-04-01T09:40:40;4.03;;;1.90;;
62941;SDS011;49042;47.318;19.874;2023-04-01T09:50:25;3.67;;;1.77;;
62941;SDS011;49042;47.318;19.874;2023-04-01T09:57:41;5.50;;;1.85;;
62941;SDS011;49042;47.318;19.874;2023-04-01T10:05:01;1.40;;;0.95;;
62941;SDS011;49042;47.318;19.874;2023-04-01T10:11:05;4.37;;;2.87;;
62941;SDS011;49042;47.318;19.874;2023-04-01T10:14:58;2.00;;;1.23;;
62941;SDS011;49042;47.318;19.874;2023-04-01T10:54:43;8.77;;;3.62;;
62941;SDS011;49042;47.318;19.874;2023-04-01T11:25:48;3.97;;;1.60;;
62941;SDS011;49042;47.318;19.874;2023-04-01T11:39:29;6.68;;;1.45;;
62941;SDS011;49042;47.318;19.874;2023-04-01T11:59:57;22.45;;;2.08;;
62941;SDS011;49042;47.318;19.874;2023-04-01T12:39:59;6.40;;;2.60;;
62941;SDS011;49042;47.318;19.874;2023-04-01T13:11:33;25.45;;;2.97;;
62941;SDS011;49042;47.318;19.874;2023-04-01T13:20:49;24.65;;;3.22;;
62941;SDS011;49042;47.318;19.874;2023-04-01T13:27:14;7.72;;;3.00;;
62941;SDS011;49042;47.318;19.874;2023-04-01T13:35:09;5.78;;;1.70;;
62941;SDS011;49042;47.318;19.874;2023-04-01T13:41:11;6.70;;;1.80;;
62941;SDS011;49042;47.318;19.874;2023-04-01T13:44:33;5.32;;;1.50;;
62941;SDS011;49042;47.318;19.874;2023-04-01T14:18:55;3.45;;;1.58;;
62941;SDS011;49042;47.318;19.874;2023-04-01T14:22:23;7.60;;;2.00;;
62941;SDS011;49042;47.318;19.874;2023-04-01T14:29:12;4.30;;;1.10;;
62941;SDS011;49042;47.318;19.874;2023-04-01T14:32:55;1.80;;;1.20;;
62941;SDS011;49042;47.318;19.874;2023-04-01T14:49:52;1.92;;;0.98;;
62941;SDS011;49042;47.318;19.874;2023-04-01T14:56:08;3.20;;;0.90;;
62941;SDS011;49042;47.318;19.874;2023-04-01T15:02:33;5.20;;;1.98;;
62941;SDS011;49042;47.318;19.874;2023-04-01T15:05:42;5.28;;;0.95;;
62941;SDS011;49042;47.318;19.874;2023-04-01T15:08:54;1.83;;;0.93;;
62941;SDS011;49042;47.318;19.874;2023-04-01T15:28:39;2.30;;;1.15;;
62941;SDS011;49042;47.318;19.874;2023-04-01T15:31:54;5.28;;;1.45;;
62941;SDS011;49042;47.318;19.874;2023-04-01T15:38:31;7.37;;;2.70;;
62941;SDS011;49042;47.318;19.874;2023-04-01T15:42:04;2.47;;;1.05;;
62941;SDS011;49042;47.318;19.874;2023-04-01T15:48:31;7.00;;;1.80;;
62941;SDS011;49042;47.318;19.874;2023-04-01T15:58:30;1.35;;;0.80;;
62941;SDS011;49042;47.318;19.874;2023-04-01T16:15:16;3.28;;;1.02;;
62941;SDS011;49042;47.318;19.874;2023-04-01T16:25:00;2.37;;;1.15;;
62941;SDS011;49042;47.318;19.874;2023-04-01T16:35:20;2.70;;;1.20;;
62941;SDS011;49042;47.318;19.874;2023-04-01T16:41:34;2.50;;;1.10;;
62941;SDS011;49042;47.318;19.874;2023-04-01T16:48:11;3.62;;;1.50;;
62941;SDS011;49042;47.318;19.874;2023-04-01T16:51:15;5.60;;;2.00;;
62941;SDS011;49042;47.318;19.874;2023-04-01T16:57:51;2.65;;;0.80;;
62941;SDS011;49042;47.318;19.874;2023-04-01T17:01:04;5.30;;;1.10;;
62941;SDS011;49042;47.318;19.874;2023-04-01T17:04:18;2.72;;;1.00;;
62941;SDS011;49042;47.318;19.874;2023-04-01T17:23:36;1.65;;;1.10;;
62941;SDS011;49042;47.318;19.874;2023-04-01T17:43:12;3.45;;;1.25;;
62941;SDS011;49042;47.318;19.874;2023-04-01T17:50:16;5.20;;;1.80;;
62941;SDS011;49042;47.318;19.874;2023-04-01T17:53:30;10.82;;;2.97;;
62941;SDS011;49042;47.318;19.874;2023-04-01T18:03:57;9.93;;;4.22;;
62941;SDS011;49042;47.318;19.874;2023-04-01T18:07:09;8.73;;;3.50;;
62941;SDS011;49042;47.318;19.874;2023-04-01T18:21:05;6.53;;;2.92;;
62941;SDS011;49042;47.318;19.874;2023-04-01T18:24:40;6.15;;;2.95;;
62941;SDS011;49042;47.318;19.874;2023-04-01T18:27:50;6.47;;;3.55;;
62941;SDS011;49042;47.318;19.874;2023-04-01T18:34:07;4.22;;;1.62;;
62941;SDS011;49042;47.318;19.874;2023-04-01T18:37:22;4.10;;;1.40;;
62941;SDS011;49042;47.318;19.874;2023-04-01T18:43:39;6.90;;;2.62;;
62941;SDS011;49042;47.318;19.874;2023-04-01T18:47:12;4.65;;;2.58;;
62941;SDS011;49042;47.318;19.874;2023-04-01T18:57:10;6.82;;;2.33;;
62941;SDS011;49042;47.318;19.874;2023-04-01T19:00:26;4.43;;;2.70;;
62941;SDS011;49042;47.318;19.874;2023-04-01T19:03:45;3.72;;;2.47;;
62941;SDS011;49042;47.318;19.874;2023-04-01T19:06:59;7.35;;;2.47;;
62941;SDS011;49042;47.318;19.874;2023-04-01T19:10:19;4.07;;;2.08;;
62941;SDS011;49042;47.318;19.874;2023-04-01T19:33:45;5.47;;;2.50;;
62941;SDS011;49042;47.318;19.874;2023-04-01T19:37:20;6.40;;;2.40;;
62941;SDS011;49042;47.318;19.874;2023-04-01T19:40:52;5.57;;;2.72;;
62941;SDS011;49042;47.318;19.874;2023-04-01T19:47:42;3.92;;;2.15;;
62941;SDS011;49042;47.318;19.874;2023-04-01T19:51:07;4.32;;;2.30;;
62941;SDS011;49042;47.318;19.874;2023-04-01T19:54:39;6.30;;;3.20;;
62941;SDS011;49042;47.318;19.874;2023-04-01T20:01:17;10.25;;;5.12;;
62941;SDS011;49042;47.318;19.874;2023-04-01T20:04:43;9.63;;;4.15;;
62941;SDS011;49042;47.318;19.874;2023-04-01T20:07:52;7.07;;;3.03;;
62941;SDS011;49042;47.318;19.874;2023-04-01T20:17:42;5.75;;;3.58;;
62941;SDS011;49042;47.318;19.874;2023-04-01T20:24:41;5.55;;;2.80;;
62941;SDS011;49042;47.318;19.874;2023-04-01T20:38:25;7.18;;;2.80;;
62941;SDS011;49042;47.318;19.874;2023-04-01T20:52:11;5.60;;;3.00;;
62941;SDS011;49042;47.318;19.874;2023-04-01T21:08:59;7.25;;;2.80;;
62941;SDS011;49042;47.318;19.874;2023-04-01T21:12:21;4.62;;;2.50;;
62941;SDS011;49042;47.318;19.874;2023-04-01T21:35:23;3.00;;;2.20;;
62941;SDS011;49042;47.318;19.874;2023-04-01T21:38:40;5.20;;;2.70;;
62941;SDS011;49042;47.318;19.874;2023-04-01T21:51:59;3.90;;;2.62;;
62941;SDS011;49042;47.318;19.874;2023-04-01T21:55:28;5.95;;;3.20;;
62941;SDS011;49042;47.318;19.874;2023-04-01T22:06:29;6.03;;;2.78;;
62941;SDS011;49042;47.318;19.874;2023-04-01T22:16:16;6.47;;;2.80;;
62941;SDS011;49042;47.318;19.874;2023-04-01T22:19:39;3.95;;;2.70;;
62941;SDS011;49042;47.318;19.874;2023-04-01T22:29:49;6.30;;;2.83;;
62941;SDS011;49042;47.318;19.874;2023-04-01T22:33:16;68.03;;;28.58;;
62941;SDS011;49042;47.318;19.874;2023-04-01T22:36:33;76.37;;;34.92;;
62941;SDS011;49042;47.318;19.874;2023-04-01T22:42:58;41.70;;;21.40;;
62941;SDS011;49042;47.318;19.874;2023-04-01T22:46:21;7.90;;;4.95;;
62941;SDS011;49042;47.318;19.874;2023-04-01T22:49:32;13.70;;;6.55;;
62941;SDS011;49042;47.318;19.874;2023-04-01T22:52:42;6.70;;;3.30;;
62941;SDS011;49042;47.318;19.874;2023-04-01T22:55:47;5.07;;;2.87;;
62941;SDS011;49042;47.318;19.874;2023-04-01T22:58:56;7.40;;;2.95;;
62941;SDS011;49042;47.318;19.874;2023-04-01T23:02:18;5.03;;;2.72;;
62941;SDS011;49042;47.318;19.874;2023-04-01T23:05:25;4.28;;;2.70;;
62941;SDS011;49042;47.318;19.874;2023-04-01T23:11:57;5.05;;;3.00;;
62941;SDS011;49042;47.318;19.874;2023-04-01T23:15:04;4.40;;;2.45;;
62941;SDS011;49042;47.318;19.874;2023-04-01T23:24:44;4.75;;;3.15;;
62941;SDS011;49042;47.318;19.874;2023-04-01T23:31:35;8.57;;;4.95;;
62941;SDS011;49042;47.318;19.874;2023-04-01T23:34:36;8.15;;;4.00;;
62941;SDS011;49042;47.318;19.874;2023-04-01T23:37:38;11.32;;;4.60;;
62941;SDS011;49042;47.318;19.874;2023-04-01T23:40:40;8.90;;;4.82;;
62941;SDS011;49042;47.318;19.874;2023-04-01T23:43:42;12.37;;;6.68;;
62941;SDS011;49042;47.318;19.874;2023-04-01T23:46:47;13.55;;;6.15;;
62941;SDS011;49042;47.318;19.874;2023-04-01T23:49:51;12.55;;;5.18;;
62941;SDS011;49042;47.318;19.874;2023-04-01T23:53:15;11.77;;;4.80;;
62941;SDS011;49042;47.318;19.874;2023-04-01T23:56:20;9.77;;;4.72;;
62941;SDS011;49042;47.318;19.874;2023-04-01T23:59:28;9.32;;;4.93;;
